Time;durP1;ratioP1;P1;durP2;ratioP2;P2;SDS_P1;SDS_P2;PMS_P1;PMS_P2;Temp;Humidity;BMP_temperature;BMP_pressure;BME280_temperature;BME280_humidity;BME280_pressure;Samples;Min_cycle;Max_cycle;Signal;HPM_P1;HPM_P2
2023/01/04 00:01:02;;;;;;;;;;;17.70;52.70;;;;;;10243721;28;758;-75
2023/01/04 00:05:58;;;;;;;;;;;17.70;52.60;;;;;;10243534;28;1953;-75
2023/01/04 00:10:53;;;;;;;;;;;17.70;52.80;;;;;;10244137;28;840;-75
2023/01/04 00:15:48;;;;;;;;;;;17.70;52.60;;;;;;10244092;28;923;-75
2023/01/04 00:20:44;;;;;;;;;;;17.70;52.40;;;;;;10243476;28;910;-75
2023/01/04 00:25:39;;;;;;;;;;;17.70;52.40;;;;;;10243217;28;1952;-75
2023/01/04 00:30:35;;;;;;;;;;;17.70;52.40;;;;;;10243878;28;912;-75
2023/01/04 00:35:30;;;;;;;;;;;17.70;52.40;;;;;;10242595;28;1221;-75
2023/01/04 00:40:25;;;;;;;;;;;17.70;52.30;;;;;;10246010;28;806;-75
2023/01/04 00:45:21;;;;;;;;;;;17.70;52.30;;;;;;10250928;28;1973;-75
2023/01/04 00:50:16;;;;;;;;;;;17.70;52.00;;;;;;10250218;28;929;-75
2023/01/04 00:55:11;;;;;;;;;;;17.70;52.30;;;;;;10250040;28;825;-75
2023/01/04 01:00:07;;;;;;;;;;;17.60;52.00;;;;;;10249818;28;949;-75
2023/01/04 01:05:02;;;;;;;;;;;17.60;52.00;;;;;;10249944;28;1964;-75
2023/01/04 01:09:57;;;;;;;;;;;17.60;52.00;;;;;;10249577;28;1035;-75
2023/01/04 01:14:53;;;;;;;;;;;17.60;52.10;;;;;;10249281;28;796;-75
2023/01/04 01:19:48;;;;;;;;;;;17.60;52.10;;;;;;10249676;28;814;-75
2023/01/04 01:24:44;;;;;;;;;;;17.60;52.00;;;;;;10248828;28;1902;-75
2023/01/04 01:29:39;;;;;;;;;;;17.60;52.30;;;;;;10249341;28;849;-75
2023/01/04 01:34:34;;;;;;;;;;;17.60;52.20;;;;;;10248667;28;1330;-75
2023/01/04 01:39:30;;;;;;;;;;;17.60;52.10;;;;;;10248947;28;822;-75
2023/01/04 01:44:25;;;;;;;;;;;17.60;52.00;;;;;;10248044;28;1971;-75
2023/01/04 01:49:20;;;;;;;;;;;17.60;51.90;;;;;;10247873;28;880;-75
2023/01/04 01:54:16;;;;;;;;;;;17.60;52.00;;;;;;10247693;28;940;-75
2023/01/04 01:59:11;;;;;;;;;;;17.60;52.10;;;;;;10247585;28;960;-75
2023/01/04 02:04:06;;;;;;;;;;;17.60;51.90;;;;;;10247388;28;1973;-75
2023/01/04 02:09:02;;;;;;;;;;;17.60;52.00;;;;;;10248525;28;893;-75
2023/01/04 02:19:11;;;;;;;;;;;17.60;52.10;;;;;;10247293;28;601;-75
2023/01/04 02:24:07;;;;;;;;;;;17.60;52.00;;;;;;10246677;28;1906;-75
2023/01/04 02:29:02;;;;;;;;;;;17.60;52.00;;;;;;10246471;28;842;-75
2023/01/04 02:33:57;;;;;;;;;;;17.60;52.00;;;;;;10246269;28;1214;-75
2023/01/04 02:38:53;;;;;;;;;;;17.60;51.90;;;;;;10246028;28;842;-75
2023/01/04 02:54:16;;;;;;;;;;;17.60;52.00;;;;;;10245139;28;589;-75
2023/01/04 02:59:12;;;;;;;;;;;17.60;52.00;;;;;;10245388;28;913;-75
2023/01/04 03:09:21;;;;;;;;;;;17.50;52.10;;;;;;10244764;28;668;-75
2023/01/04 03:14:17;;;;;;;;;;;17.50;51.80;;;;;;10244818;28;968;-75
2023/01/04 03:19:12;;;;;;;;;;;17.50;52.00;;;;;;10244099;28;810;-75
2023/01/04 03:50:18;;;;;;;;;;;17.50;51.90;;;;;;10243494;28;656;-75
2023/01/04 03:55:13;;;;;;;;;;;17.50;52.10;;;;;;10243962;28;939;-75
2023/01/04 04:00:09;;;;;;;;;;;17.50;51.90;;;;;;10244348;28;864;-75
2023/01/04 04:10:18;;;;;;;;;;;17.50;52.00;;;;;;10243176;28;601;-75
2023/01/04 04:15:14;;;;;;;;;;;17.50;51.90;;;;;;10248697;28;853;-75
2023/01/04 04:20:09;;;;;;;;;;;17.50;51.90;;;;;;10252019;28;833;-75
2023/01/04 04:25:04;;;;;;;;;;;17.50;52.00;;;;;;10251132;28;1958;-75
2023/01/04 04:30:01;;;;;;;;;;;17.50;52.00;;;;;;10251638;28;874;-75
2023/01/04 04:34:56;;;;;;;;;;;17.50;51.90;;;;;;10251300;28;1089;-75
2023/01/04 04:39:52;;;;;;;;;;;17.50;51.90;;;;;;10250636;28;839;-75
2023/01/04 04:44:47;;;;;;;;;;;17.40;51.90;;;;;;10249782;28;1910;-75
2023/01/04 04:49:42;;;;;;;;;;;17.40;51.90;;;;;;10250310;28;818;-75
2023/01/04 04:54:38;;;;;;;;;;;17.50;51.90;;;;;;10250080;28;954;-75
2023/01/04 04:59:35;;;;;;;;;;;17.40;51.80;;;;;;10249906;28;890;-76
2023/01/04 05:04:30;;;;;;;;;;;17.50;52.00;;;;;;10250527;28;1963;-75
2023/01/04 05:09:25;;;;;;;;;;;17.50;51.90;;;;;;10249512;28;794;-75
2023/01/04 05:14:21;;;;;;;;;;;17.40;52.10;;;;;;10249340;28;870;-75
2023/01/04 05:19:16;;;;;;;;;;;17.50;52.10;;;;;;10250360;28;945;-75
2023/01/04 05:24:11;;;;;;;;;;;17.50;52.00;;;;;;10249047;28;1957;-75
2023/01/04 05:30:49;;;;;;;;;;;17.50;51.90;;;;;;10248461;28;801;-75
2023/01/04 05:34:22;;;;;;;;;;;17.60;51.90;;;;;;10248230;28;1535;-75
2023/01/04 05:39:17;;;;;;;;;;;17.60;51.90;;;;;;10247811;28;980;-75
2023/01/04 05:44:13;;;;;;;;;;;17.60;51.90;;;;;;10248757;28;2029;-75
2023/01/04 05:49:08;;;;;;;;;;;17.60;51.90;;;;;;10248032;28;871;-75
2023/01/04 05:54:04;;;;;;;;;;;17.60;51.70;;;;;;10248726;28;799;-75
2023/01/04 05:58:59;;;;;;;;;;;17.60;52.00;;;;;;10247235;28;893;-75
2023/01/04 06:03:54;;;;;;;;;;;17.60;51.90;;;;;;10246803;28;1907;-75
2023/01/04 06:08:50;;;;;;;;;;;17.60;51.80;;;;;;10247288;28;803;-75
2023/01/04 06:13:45;;;;;;;;;;;17.60;51.90;;;;;;10247704;28;1036;-75
2023/01/04 06:18:40;;;;;;;;;;;17.60;51.80;;;;;;10246876;28;935;-75
2023/01/04 06:23:36;;;;;;;;;;;17.60;51.80;;;;;;10246633;28;1977;-74
2023/01/04 06:28:31;;;;;;;;;;;17.60;51.90;;;;;;10245696;28;763;-75
2023/01/04 06:33:26;;;;;;;;;;;17.60;51.90;;;;;;10245784;28;1106;-75
2023/01/04 06:38:22;;;;;;;;;;;17.60;51.90;;;;;;10245487;28;881;-75
2023/01/04 06:43:17;;;;;;;;;;;17.60;51.90;;;;;;10245686;28;1914;-75
2023/01/04 06:48:12;;;;;;;;;;;17.60;51.90;;;;;;10245471;28;816;-76
2023/01/04 06:53:08;;;;;;;;;;;17.60;51.90;;;;;;10245254;28;787;-76
2023/01/04 06:58:03;;;;;;;;;;;17.60;51.80;;;;;;10245685;28;850;-78
2023/01/04 07:02:59;;;;;;;;;;;17.60;51.90;;;;;;10245437;28;1967;-75
2023/01/04 07:07:54;;;;;;;;;;;17.60;51.90;;;;;;10245389;28;858;-75
2023/01/04 07:12:49;;;;;;;;;;;17.60;51.80;;;;;;10244015;28;795;-75
2023/01/04 07:17:45;;;;;;;;;;;17.50;51.80;;;;;;10244843;28;798;-75
2023/01/04 07:22:40;;;;;;;;;;;17.50;51.90;;;;;;10244008;28;873;-74
2023/01/04 07:27:35;;;;;;;;;;;17.50;52.00;;;;;;10244411;28;1969;-75
2023/01/04 07:32:31;;;;;;;;;;;17.50;52.00;;;;;;10244734;28;1222;-75
2023/01/04 07:37:26;;;;;;;;;;;17.50;51.90;;;;;;10244855;28;925;-75
2023/01/04 07:42:22;;;;;;;;;;;17.50;51.90;;;;;;10243505;28;876;-76
2023/01/04 07:47:17;;;;;;;;;;;17.60;52.00;;;;;;10244100;28;1977;-76
2023/01/04 07:52:13;;;;;;;;;;;17.60;52.00;;;;;;10256666;28;859;-75
2023/01/04 07:57:08;;;;;;;;;;;17.60;52.00;;;;;;10257910;28;807;-75
2023/01/04 08:02:03;;;;;;;;;;;17.60;52.10;;;;;;10257820;28;963;-75
2023/01/04 08:06:59;;;;;;;;;;;17.50;52.10;;;;;;10257093;28;1969;-75
2023/01/04 08:11:54;;;;;;;;;;;17.50;52.10;;;;;;10257050;28;867;-75
2023/01/04 08:16:49;;;;;;;;;;;17.50;52.20;;;;;;10257355;28;842;-75
2023/01/04 08:21:45;;;;;;;;;;;17.50;52.00;;;;;;10255031;28;1010;-75
2023/01/04 08:26:40;;;;;;;;;;;17.50;52.20;;;;;;10255452;28;1962;-75
2023/01/04 08:31:35;;;;;;;;;;;17.50;52.30;;;;;;10256084;28;791;-75
2023/01/04 08:36:31;;;;;;;;;;;17.50;52.30;;;;;;10255649;28;1137;-75
2023/01/04 08:41:26;;;;;;;;;;;17.50;52.40;;;;;;10255512;28;1011;-75
2023/01/04 08:46:22;;;;;;;;;;;17.50;52.30;;;;;;10256428;28;1968;-73
2023/01/04 08:51:17;;;;;;;;;;;17.60;52.60;;;;;;10256660;28;830;-74
2023/01/04 08:56:12;;;;;;;;;;;17.80;52.80;;;;;;10255712;28;861;-75
2023/01/04 09:01:08;;;;;;;;;;;17.90;52.80;;;;;;10251222;28;873;-75
2023/01/04 09:06:03;;;;;;;;;;;17.70;53.00;;;;;;10249045;28;1961;-75
2023/01/04 09:10:58;;;;;;;;;;;17.60;53.10;;;;;;10249217;28;865;-75
2023/01/04 09:15:54;;;;;;;;;;;17.60;53.20;;;;;;10248760;28;916;-75
2023/01/04 09:20:49;;;;;;;;;;;17.60;53.10;;;;;;10248674;28;921;-75
2023/01/04 09:25:44;;;;;;;;;;;17.60;53.10;;;;;;10248281;28;1906;-75
2023/01/04 09:30:40;;;;;;;;;;;17.60;53.00;;;;;;10249073;28;857;-75
2023/01/04 09:35:35;;;;;;;;;;;17.60;53.00;;;;;;10248691;28;1465;-74
2023/01/04 09:40:30;;;;;;;;;;;17.50;52.90;;;;;;10248730;28;997;-75
2023/01/04 09:45:26;;;;;;;;;;;17.50;52.90;;;;;;10247848;28;1918;-75
2023/01/04 09:50:21;;;;;;;;;;;17.50;52.80;;;;;;10247888;28;963;-76
2023/01/04 09:55:17;;;;;;;;;;;17.50;52.90;;;;;;10247158;28;887;-75
2023/01/04 10:00:12;;;;;;;;;;;17.50;53.00;;;;;;10247615;28;861;-76
2023/01/04 10:05:07;;;;;;;;;;;17.50;53.00;;;;;;10247393;28;1967;-71
2023/01/04 10:10:03;;;;;;;;;;;17.50;53.00;;;;;;10247883;28;1003;-71
2023/01/04 10:14:58;;;;;;;;;;;17.80;53.50;;;;;;10246259;28;763;-74
2023/01/04 10:19:53;;;;;;;;;;;17.70;53.40;;;;;;10246960;28;847;-74
2023/01/04 10:24:49;;;;;;;;;;;17.60;53.60;;;;;;10246340;28;1909;-73
2023/01/04 10:29:44;;;;;;;;;;;17.50;53.70;;;;;;10247155;28;933;-73
2023/01/04 10:34:40;;;;;;;;;;;17.50;53.60;;;;;;10245749;28;1296;-69
2023/01/04 10:39:35;;;;;;;;;;;17.60;53.80;;;;;;10245999;28;780;-71
2023/01/04 10:44:30;;;;;;;;;;;17.80;53.60;;;;;;10245814;28;1918;-71
2023/01/04 10:49:26;;;;;;;;;;;17.90;53.60;;;;;;10246067;28;859;-71
2023/01/04 10:54:21;;;;;;;;;;;17.90;53.60;;;;;;10245008;28;888;-71
2023/01/04 10:59:16;;;;;;;;;;;17.90;53.70;;;;;;10245569;28;838;-71
2023/01/04 11:04:12;;;;;;;;;;;18.00;53.70;;;;;;10244621;28;1959;-71
2023/01/04 11:09:07;;;;;;;;;;;18.00;53.80;;;;;;10244562;28;785;-71
2023/01/04 11:14:03;;;;;;;;;;;18.00;53.70;;;;;;10244219;28;810;-71
2023/01/04 11:18:58;;;;;;;;;;;18.00;53.70;;;;;;10243998;28;779;-71
2023/01/04 11:23:53;;;;;;;;;;;18.00;53.80;;;;;;10243282;28;1906;-71
2023/01/04 11:28:49;;;;;;;;;;;18.00;53.90;;;;;;10243732;28;802;-68
2023/01/04 11:33:44;;;;;;;;;;;18.00;53.90;;;;;;10243585;28;1131;-71
2023/01/04 11:38:39;;;;;;;;;;;18.00;54.00;;;;;;10243964;28;954;-71
2023/01/04 11:43:35;;;;;;;;;;;18.10;53.90;;;;;;10244439;28;2277;-70
2023/01/04 11:48:30;;;;;;;;;;;18.10;53.90;;;;;;10244102;28;876;-70
2023/01/04 11:53:25;;;;;;;;;;;18.10;53.80;;;;;;10243708;28;801;-71
2023/01/04 11:58:21;;;;;;;;;;;18.10;53.80;;;;;;10243051;28;774;-70
2023/01/04 12:03:16;;;;;;;;;;;18.10;53.90;;;;;;10244235;28;1902;-70
2023/01/04 12:08:12;;;;;;;;;;;17.90;54.30;;;;;;10243744;28;848;-70
2023/01/04 12:13:07;;;;;;;;;;;18.00;54.40;;;;;;10244305;28;882;-70
2023/01/04 12:18:02;;;;;;;;;;;18.10;54.40;;;;;;10244188;28;948;-70
2023/01/04 12:22:58;;;;;;;;;;;18.10;54.40;;;;;;10243998;28;1906;-70
2023/01/04 12:27:56;;;;;;;;;;;18.10;54.50;;;;;;10243376;28;860;-69
2023/01/04 12:32:51;;;;;;;;;;;18.10;54.60;;;;;;10243083;28;1222;-70
2023/01/04 12:37:48;;;;;;;;;;;18.20;54.80;;;;;;10247885;28;818;-70
2023/01/04 12:42:43;;;;;;;;;;;18.20;55.00;;;;;;10250614;28;1004;-71
2023/01/04 12:52:53;;;;;;;;;;;18.10;55.50;;;;;;10250432;28;601;-71
2023/01/04 12:57:48;;;;;;;;;;;18.20;55.50;;;;;;10250894;28;833;-71
2023/01/04 13:02:50;;;;;;;;;;;18.20;55.50;;;;;;10249584;28;1253;-71
2023/01/04 13:07:46;;;;;;;;;;;18.10;55.60;;;;;;10249734;28;1902;-71
2023/01/04 13:12:41;;;;;;;;;;;18.20;55.50;;;;;;10250203;28;786;-71
2023/01/04 13:17:36;;;;;;;;;;;18.10;55.60;;;;;;10250014;28;877;-71
2023/01/04 13:22:33;;;;;;;;;;;18.20;55.60;;;;;;10249224;28;936;-71
2023/01/04 13:27:28;;;;;;;;;;;18.20;55.60;;;;;;10249428;28;1965;-71
2023/01/04 13:32:23;;;;;;;;;;;18.20;55.50;;;;;;10249265;28;994;-71
2023/01/04 13:37:20;;;;;;;;;;;18.20;55.50;;;;;;10248772;28;852;-70
2023/01/04 13:42:16;;;;;;;;;;;18.20;55.60;;;;;;10248375;28;1042;-71
2023/01/04 13:47:12;;;;;;;;;;;18.20;55.50;;;;;;10248111;28;1979;-71
2023/01/04 13:52:07;;;;;;;;;;;18.20;55.50;;;;;;10247869;28;758;-71
2023/01/04 13:57:02;;;;;;;;;;;18.20;55.70;;;;;;10247517;28;954;-69
2023/01/04 14:01:58;;;;;;;;;;;18.20;55.60;;;;;;10247452;28;1036;-69
2023/01/04 14:06:53;;;;;;;;;;;18.20;55.80;;;;;;10247758;28;1906;-69
2023/01/04 14:11:57;;;;;;;;;;;18.20;55.80;;;;;;10246456;28;916;-69
2023/01/04 14:16:53;;;;;;;;;;;18.20;55.70;;;;;;10246792;28;774;-69
2023/01/04 14:21:48;;;;;;;;;;;18.20;55.80;;;;;;10247231;28;905;-70
2023/01/04 14:26:44;;;;;;;;;;;18.20;55.80;;;;;;10246309;28;1902;-70
2023/01/04 14:31:39;;;;;;;;;;;18.20;55.90;;;;;;10245672;28;876;-70
2023/01/04 14:36:35;;;;;;;;;;;18.20;55.90;;;;;;10245940;28;1426;-70
2023/01/04 14:41:31;;;;;;;;;;;18.20;55.90;;;;;;10246446;28;860;-69
2023/01/04 14:46:26;;;;;;;;;;;18.10;55.80;;;;;;10246700;28;1918;-70
2023/01/04 14:51:22;;;;;;;;;;;18.10;55.90;;;;;;10246666;28;888;-70
2023/01/04 14:56:17;;;;;;;;;;;18.10;56.00;;;;;;10245621;28;1039;-70
2023/01/04 15:01:12;;;;;;;;;;;18.20;55.80;;;;;;10244288;28;829;-69
2023/01/04 15:06:08;;;;;;;;;;;18.20;55.70;;;;;;10245765;28;1965;-70
2023/01/04 15:11:03;;;;;;;;;;;18.20;55.70;;;;;;10245445;28;727;-70
2023/01/04 15:15:58;;;;;;;;;;;18.20;55.90;;;;;;10244587;28;886;-70
2023/01/04 15:20:54;;;;;;;;;;;18.30;55.80;;;;;;10245124;28;871;-69
2023/01/04 15:25:49;;;;;;;;;;;18.20;55.80;;;;;;10244227;28;1910;-70
2023/01/04 15:30:45;;;;;;;;;;;18.20;55.70;;;;;;10244206;28;883;-69
2023/01/04 15:35:40;;;;;;;;;;;18.20;55.90;;;;;;10243592;28;1375;-69
2023/01/04 15:40:36;;;;;;;;;;;18.20;56.00;;;;;;10242064;28;1137;-68
2023/01/04 15:45:31;;;;;;;;;;;18.30;56.10;;;;;;10243770;28;1910;-70
2023/01/04 15:50:26;;;;;;;;;;;18.30;55.70;;;;;;10244359;28;957;-70
2023/01/04 15:55:22;;;;;;;;;;;18.20;56.00;;;;;;10243065;28;1218;-69
2023/01/04 16:00:17;;;;;;;;;;;18.20;55.90;;;;;;10243555;28;794;-70
2023/01/04 16:05:14;;;;;;;;;;;18.30;55.90;;;;;;10243323;28;1898;-70
2023/01/04 16:10:10;;;;;;;;;;;18.30;55.80;;;;;;10246466;28;843;-69
2023/01/04 16:15:06;;;;;;;;;;;18.30;56.50;;;;;;10251464;28;920;-69
2023/01/04 16:20:01;;;;;;;;;;;18.30;55.90;;;;;;10251791;28;771;-70
2023/01/04 16:24:57;;;;;;;;;;;18.30;56.50;;;;;;10251598;28;1909;-69
2023/01/04 16:29:52;;;;;;;;;;;18.30;56.00;;;;;;10251448;28;855;-69
2023/01/04 16:34:47;;;;;;;;;;;18.30;56.00;;;;;;10248735;28;1165;-70
2023/01/04 16:39:43;;;;;;;;;;;18.30;55.80;;;;;;10248072;28;1200;-70
2023/01/04 16:44:38;;;;;;;;;;;18.30;55.80;;;;;;10249483;28;1975;-68
2023/01/04 16:49:34;;;;;;;;;;;18.30;55.80;;;;;;10250444;28;851;-68
2023/01/04 16:54:29;;;;;;;;;;;18.40;55.80;;;;;;10250526;28;860;-68
2023/01/04 16:59:24;;;;;;;;;;;18.30;55.70;;;;;;10249780;28;822;-69
2023/01/04 17:04:20;;;;;;;;;;;18.30;55.80;;;;;;10249993;28;1883;-69
2023/01/04 17:09:15;;;;;;;;;;;18.30;55.80;;;;;;10249969;28;882;-69
2023/01/04 17:14:11;;;;;;;;;;;18.30;56.50;;;;;;10249223;28;760;-69
2023/01/04 17:19:06;;;;;;;;;;;18.30;55.90;;;;;;10249668;28;872;-70
2023/01/04 17:24:01;;;;;;;;;;;18.30;56.00;;;;;;10247898;28;1906;-70
2023/01/04 17:28:57;;;;;;;;;;;18.30;56.00;;;;;;10249409;28;790;-68
2023/01/04 17:33:52;;;;;;;;;;;18.40;55.90;;;;;;10248248;28;1300;-70
2023/01/04 17:38:48;;;;;;;;;;;18.30;55.90;;;;;;10247743;28;829;-69
2023/01/04 17:43:43;;;;;;;;;;;18.30;55.90;;;;;;10248057;28;1966;-68
2023/01/04 17:48:38;;;;;;;;;;;18.40;55.90;;;;;;10247965;28;782;-68
2023/01/04 17:53:34;;;;;;;;;;;18.40;56.00;;;;;;10247733;28;819;-69
2023/01/04 17:58:29;;;;;;;;;;;18.40;55.90;;;;;;10247566;28;799;-69
2023/01/04 18:03:25;;;;;;;;;;;18.50;56.10;;;;;;10247436;28;1906;-68
2023/01/04 18:08:20;;;;;;;;;;;18.50;56.90;;;;;;10247165;28;791;-69
2023/01/04 18:13:15;;;;;;;;;;;18.40;56.50;;;;;;10247124;28;770;-70
2023/01/04 18:18:11;;;;;;;;;;;18.40;56.40;;;;;;10247094;28;922;-70
2023/01/04 18:23:06;;;;;;;;;;;18.40;56.30;;;;;;10247521;28;750;-70
2023/01/04 18:28:01;;;;;;;;;;;18.40;56.20;;;;;;10247239;28;1891;-70
2023/01/04 18:32:57;;;;;;;;;;;18.30;56.20;;;;;;10247355;28;1273;-70
2023/01/04 18:37:52;;;;;;;;;;;18.40;56.30;;;;;;10247047;28;857;-70
2023/01/04 18:42:48;;;;;;;;;;;18.30;56.20;;;;;;10246139;28;880;-70
2023/01/04 18:47:46;;;;;;;;;;;18.30;56.20;;;;;;10246006;28;1894;-70
2023/01/04 18:52:41;;;;;;;;;;;18.40;56.00;;;;;;10245841;28;782;-70
2023/01/04 18:57:39;;;;;;;;;;;18.30;56.10;;;;;;10245008;28;920;-70
2023/01/04 19:02:35;;;;;;;;;;;18.30;56.00;;;;;;10246094;28;888;-70
2023/01/04 19:07:30;;;;;;;;;;;18.30;55.80;;;;;;10245185;28;1906;-70
2023/01/04 19:12:25;;;;;;;;;;;18.40;55.80;;;;;;10245705;28;922;-70
2023/01/04 19:17:23;;;;;;;;;;;18.40;55.70;;;;;;10244976;28;748;-67
2023/01/04 19:22:18;;;;;;;;;;;18.30;55.60;;;;;;10244783;28;1013;-75
2023/01/04 19:27:14;;;;;;;;;;;18.20;55.80;;;;;;10244170;28;1894;-79
2023/01/04 19:32:09;;;;;;;;;;;18.10;56.10;;;;;;10244465;28;855;-80
2023/01/04 19:37:05;;;;;;;;;;;18.00;56.30;;;;;;10245610;28;1209;-80
2023/01/04 19:42:00;;;;;;;;;;;18.00;56.40;;;;;;10244579;28;869;-80
2023/01/04 19:46:55;;;;;;;;;;;17.90;56.10;;;;;;10244184;28;1975;-79
2023/01/04 19:51:51;;;;;;;;;;;17.90;56.20;;;;;;10244070;28;826;-80
2023/01/04 19:56:46;;;;;;;;;;;17.90;56.10;;;;;;10244655;28;848;-80
2023/01/04 20:01:41;;;;;;;;;;;17.90;56.10;;;;;;10243812;28;1005;-80
2023/01/04 20:06:37;;;;;;;;;;;17.90;56.00;;;;;;10243124;28;1902;-79
2023/01/04 20:11:33;;;;;;;;;;;17.90;55.90;;;;;;10244383;28;890;-79
2023/01/04 20:16:28;;;;;;;;;;;17.90;55.90;;;;;;10243591;28;878;-79
2023/01/04 20:21:23;;;;;;;;;;;17.90;55.70;;;;;;10243465;28;867;-79
2023/01/04 20:26:19;;;;;;;;;;;17.90;55.70;;;;;;10243905;28;1966;-80
2023/01/04 20:31:14;;;;;;;;;;;17.90;55.70;;;;;;10244548;28;783;-80
2023/01/04 20:36:09;;;;;;;;;;;18.00;55.70;;;;;;10243402;28;1322;-79
2023/01/04 20:41:05;;;;;;;;;;;17.90;55.60;;;;;;10242539;28;1321;-80
2023/01/04 20:46:00;;;;;;;;;;;17.90;55.60;;;;;;10243017;28;1906;-79
2023/01/04 20:50:56;;;;;;;;;;;17.90;55.60;;;;;;10243049;28;929;-79
2023/01/04 20:55:51;;;;;;;;;;;17.90;55.60;;;;;;10243542;28;853;-79
2023/01/04 21:00:46;;;;;;;;;;;17.90;55.60;;;;;;10250175;28;860;-80
2023/01/04 21:05:42;;;;;;;;;;;17.80;55.50;;;;;;10250536;28;1914;-79
2023/01/04 21:10:37;;;;;;;;;;;17.80;55.50;;;;;;10249800;28;762;-80
2023/01/04 21:15:32;;;;;;;;;;;17.80;55.60;;;;;;10249004;28;884;-80
2023/01/04 21:20:28;;;;;;;;;;;17.80;55.50;;;;;;10249441;28;852;-80
2023/01/04 21:25:23;;;;;;;;;;;17.80;55.50;;;;;;10249732;28;1910;-80
2023/01/04 21:30:19;;;;;;;;;;;17.80;55.50;;;;;;10249098;28;877;-80
2023/01/04 21:35:14;;;;;;;;;;;17.80;55.50;;;;;;10247329;28;1208;-80
2023/01/04 21:40:09;;;;;;;;;;;17.80;55.50;;;;;;10248652;28;765;-82
2023/01/04 21:45:05;;;;;;;;;;;17.80;55.50;;;;;;10248401;28;1942;-81
2023/01/04 21:50:00;;;;;;;;;;;17.80;55.40;;;;;;10248438;28;922;-81
2023/01/04 21:54:56;;;;;;;;;;;17.80;55.30;;;;;;10247479;28;932;-81
2023/01/04 21:59:51;;;;;;;;;;;17.80;55.40;;;;;;10247853;28;888;-81
2023/01/04 22:04:47;;;;;;;;;;;17.80;55.40;;;;;;10247626;28;1955;-81
2023/01/04 22:09:42;;;;;;;;;;;17.80;55.30;;;;;;10247105;28;954;-81
2023/01/04 22:14:38;;;;;;;;;;;17.80;55.30;;;;;;10247416;28;764;-82
2023/01/04 22:19:33;;;;;;;;;;;17.70;55.20;;;;;;10247143;28;755;-81
2023/01/04 22:24:29;;;;;;;;;;;17.70;55.20;;;;;;10247463;28;1967;-81
2023/01/04 22:29:24;;;;;;;;;;;17.80;55.20;;;;;;10246761;28;876;-81
2023/01/04 22:34:19;;;;;;;;;;;17.80;55.20;;;;;;10246275;28;1138;-81
2023/01/04 22:39:15;;;;;;;;;;;17.80;55.10;;;;;;10246611;28;817;-81
2023/01/04 22:44:10;;;;;;;;;;;17.80;55.20;;;;;;10246082;28;1907;-81
2023/01/04 22:49:05;;;;;;;;;;;17.80;55.10;;;;;;10246006;28;810;-81
2023/01/04 22:54:01;;;;;;;;;;;17.80;55.10;;;;;;10246830;28;806;-81
2023/01/04 22:58:56;;;;;;;;;;;17.80;55.10;;;;;;10245641;28;853;-81
2023/01/04 23:03:53;;;;;;;;;;;17.80;55.10;;;;;;10245970;28;1906;-81
2023/01/04 23:08:48;;;;;;;;;;;17.80;55.10;;;;;;10246189;28;891;-82
2023/01/04 23:13:44;;;;;;;;;;;17.80;55.00;;;;;;10245096;28;867;-82
2023/01/04 23:18:39;;;;;;;;;;;17.80;55.10;;;;;;10244364;28;817;-82
2023/01/04 23:23:34;;;;;;;;;;;17.80;55.00;;;;;;10244670;28;1903;-82
2023/01/04 23:28:30;;;;;;;;;;;17.70;55.00;;;;;;10244681;28;849;-83
2023/01/04 23:33:25;;;;;;;;;;;17.80;55.00;;;;;;10244766;28;1164;-82
2023/01/04 23:38:23;;;;;;;;;;;17.70;55.00;;;;;;10244386;28;895;-82
2023/01/04 23:43:19;;;;;;;;;;;17.70;54.90;;;;;;10244641;28;760;-82
2023/01/04 23:48:15;;;;;;;;;;;17.80;54.90;;;;;;10243473;28;1935;-80
2023/01/04 23:53:10;;;;;;;;;;;17.80;54.90;;;;;;10245178;28;789;-80
2023/01/04 23:58:05;;;;;;;;;;;17.80;54.90;;;;;;10243950;28;889;-80
